Time;durP1;ratioP1;P1;durP2;ratioP2;P2;SDS_P1;SDS_P2;PMS_P1;PMS_P2;Temp;Humidity;BMP_temperature;BMP_pressure;BME280_temperature;BME280_humidity;BME280_pressure;Samples;Min_cycle;Max_cycle;Signal;HPM_P1;HPM_P2
2023/05/01 00:02:01;;;;;;;10.07;3.72;;;;;;;12.22;75.41;101699.25;5092568;28;20477;-76
2023/05/01 00:04:26;;;;;;;9.27;3.75;;;;;;;12.19;76.59;101686.22;5093696;28;20028;-76
2023/05/01 00:06:51;;;;;;;7.43;3.45;;;;;;;12.19;75.47;101689.69;5090982;28;20061;-76
2023/05/01 00:09:17;;;;;;;7.10;3.92;;;;;;;12.20;76.50;101685.38;5093386;28;20379;-76
2023/05/01 00:11:42;;;;;;;9.20;3.80;;;;;;;12.16;75.60;101681.06;5091921;28;20040;-76
2023/05/01 00:14:07;;;;;;;6.05;3.45;;;;;;;12.14;77.49;101680.22;5089091;28;20044;-76
2023/05/01 00:16:34;;;;;;;8.98;3.83;;;;;;;12.15;75.96;101677.56;5082351;28;20028;-76
2023/05/01 00:19:00;;;;;;;7.28;3.78;;;;;;;12.08;75.62;101667.25;5092816;28;20368;-76
2023/05/01 00:21:27;;;;;;;7.28;3.67;;;;;;;12.07;76.73;101670.78;5092792;28;20058;-76
2023/05/01 00:23:53;;;;;;;8.48;3.72;;;;;;;12.08;76.04;101677.72;5091594;28;20027;-76
2023/05/01 00:26:18;;;;;;;5.60;3.17;;;;;;;12.04;76.35;101662.97;5093634;28;20012;-76
2023/05/01 00:28:43;;;;;;;7.05;3.05;;;;;;;12.06;76.72;101666.41;5091021;28;20047;-76
2023/05/01 00:31:09;;;;;;;5.95;3.55;;;;;;;12.06;76.99;101664.66;5092791;28;20391;-76
2023/05/01 00:33:34;;;;;;;5.03;3.30;;;;;;;12.02;75.07;101654.28;5092276;28;20031;-76
2023/05/01 00:35:59;;;;;;;6.20;3.53;;;;;;;11.99;76.59;101654.34;5091517;28;20032;-76
2023/05/01 00:38:25;;;;;;;6.45;3.60;;;;;;;12.04;76.58;101660.38;5093097;28;20103;-76
2023/05/01 00:40:50;;;;;;;7.07;3.65;;;;;;;11.96;77.03;101650.03;5092162;28;20102;-76
2023/05/01 00:43:15;;;;;;;6.30;3.20;;;;;;;11.97;77.78;101643.03;5091618;28;20426;-76
2023/05/01 00:45:43;;;;;;;6.38;3.22;;;;;;;11.89;75.13;101645.78;5103936;28;20474;-76
2023/05/01 00:48:09;;;;;;;5.82;3.53;;;;;;;11.92;77.54;101653.56;5095530;28;20032;-76
2023/05/01 00:50:35;;;;;;;6.53;3.33;;;;;;;11.89;75.76;101645.78;5089782;28;20028;-76
2023/05/01 00:53:01;;;;;;;8.52;3.28;;;;;;;11.89;76.09;101644.03;5090177;28;20401;-76
2023/05/01 00:55:27;;;;;;;4.63;3.08;;;;;;;11.83;77.22;101625.81;5091674;28;20020;-76
2023/05/01 00:57:53;;;;;;;4.40;3.10;;;;;;;11.86;75.44;101633.63;5092060;28;20020;-76
2023/05/01 01:00:21;;;;;;;6.63;3.20;;;;;;;11.87;77.61;101635.38;5091793;28;20179;-75
2023/05/01 01:02:46;;;;;;;5.13;3.08;;;;;;;11.85;77.50;101633.66;5094975;28;20096;-75
2023/05/01 01:05:12;;;;;;;7.55;3.00;;;;;;;11.82;76.72;101629.31;5090135;28;20059;-76
2023/05/01 01:08:09;;;;;;;8.07;3.22;;;;;;;11.81;76.15;101616.28;5086106;28;20387;-76
2023/05/01 01:11:19;;;;;;;5.90;3.53;;;;;;;11.85;77.26;101618.84;5089516;28;20111;-76
2023/05/01 01:13:58;;;;;;;5.88;3.55;;;;;;;11.80;77.40;101615.41;5027728;28;20051;-76
2023/05/01 01:16:31;;;;;;;6.90;3.47;;;;;;;11.76;77.62;101610.25;5079970;28;20032;-76
2023/05/01 01:19:18;;;;;;;5.25;3.47;;;;;;;11.69;77.68;101593.81;5092114;28;20019;-76
2023/05/01 01:21:48;;;;;;;4.88;3.25;;;;;;;11.61;79.90;101587.88;5091075;28;20036;-76
2023/05/01 01:24:34;;;;;;;5.30;3.08;;;;;;;11.68;79.02;101598.19;5090944;28;20038;-76
2023/05/01 01:27:10;;;;;;;8.88;3.38;;;;;;;11.61;78.95;101595.72;5092399;28;20016;-75
2023/05/01 01:30:04;;;;;;;5.55;3.28;;;;;;;11.61;79.07;101588.72;5092324;28;20054;-76
2023/05/01 01:33:00;;;;;;;4.60;3.40;;;;;;;11.57;78.63;101583.56;5090277;28;20101;-76
2023/05/01 01:35:27;;;;;;;7.60;3.55;;;;;;;11.56;80.69;101582.72;5080894;28;20360;-76
2023/05/01 01:38:11;;;;;;;6.70;3.42;;;;;;;11.52;79.98;101575.81;5091106;28;20044;-76
2023/05/01 01:40:58;;;;;;;5.80;3.50;;;;;;;11.55;80.82;101581.00;5092437;28;20047;-76
2023/05/01 01:43:25;;;;;;;6.00;3.63;;;;;;;11.53;81.20;101563.63;5092378;28;20030;-76
2023/05/01 01:45:59;;;;;;;6.13;3.80;;;;;;;11.53;82.34;101567.09;5090764;28;20058;-76
2023/05/01 01:48:30;;;;;;;6.53;3.78;;;;;;;11.55;83.54;101564.47;5089116;28;20445;-76
2023/05/01 01:50:58;;;;;;;7.68;4.03;;;;;;;11.55;82.71;101564.47;5091657;28;20471;-76
2023/05/01 01:53:25;;;;;;;7.35;4.10;;;;;;;11.48;81.15;101567.16;5091575;28;20027;-76
2023/05/01 01:55:53;;;;;;;6.47;3.95;;;;;;;11.43;83.75;101563.75;5090662;28;20086;-76
2023/05/01 01:58:25;;;;;;;5.85;3.67;;;;;;;11.43;85.15;101561.16;5092574;28;20069;-76
2023/05/01 02:00:51;;;;;;;6.18;4.20;;;;;;;11.36;84.74;101558.66;5090440;28;20089;-76
2023/05/01 02:03:18;;;;;;;7.65;4.00;;;;;;;11.36;85.02;101548.22;5091863;28;20043;-76
2023/05/01 02:05:45;;;;;;;6.90;4.10;;;;;;;11.33;85.44;101551.72;5090290;28;20032;-76
2023/05/01 02:08:12;;;;;;;8.20;4.18;;;;;;;11.28;85.62;101544.84;5091217;28;20035;-76
2023/05/01 02:10:39;;;;;;;8.95;4.20;;;;;;;11.30;86.20;101550.91;5091044;28;20035;-76
2023/05/01 02:13:05;;;;;;;6.38;3.90;;;;;;;11.33;85.94;101549.13;5091359;28;20127;-76
2023/05/01 02:15:32;;;;;;;7.32;4.13;;;;;;;11.21;86.88;101538.88;5079790;28;20428;-76
2023/05/01 02:18:01;;;;;;;4.60;3.60;;;;;;;11.21;87.88;101538.88;5091157;28;20028;-76
2023/05/01 02:20:27;;;;;;;7.45;3.88;;;;;;;11.22;88.26;101540.59;5089332;28;20032;-73
2023/05/01 02:22:53;;;;;;;7.28;3.95;;;;;;;11.17;88.63;101542.41;5100515;28;20043;-73
2023/05/01 02:25:19;;;;;;;7.97;4.05;;;;;;;11.16;88.09;101536.34;5091394;28;20020;-73
2023/05/01 02:27:54;;;;;;;6.85;3.90;;;;;;;11.17;87.72;101534.59;5100569;28;20428;-74
2023/05/01 02:30:20;;;;;;;8.52;3.78;;;;;;;11.12;86.25;101529.44;5093161;28;20075;-73
2023/05/01 02:32:45;;;;;;;8.48;4.50;;;;;;;11.16;86.49;101527.66;5090558;28;21595;-73
2023/05/01 02:35:11;;;;;;;7.85;4.00;;;;;;;11.16;87.30;101530.25;5088604;28;20028;-73
2023/05/01 02:37:37;;;;;;;5.18;4.03;;;;;;;11.16;88.86;101519.81;5091367;28;20107;-73
2023/05/01 02:40:03;;;;;;;5.65;3.83;;;;;;;11.13;87.96;101514.63;5091920;28;20028;-74
2023/05/01 02:42:28;;;;;;;5.22;3.88;;;;;;;11.11;88.37;101506.81;5091455;28;20032;-73
2023/05/01 02:44:57;;;;;;;6.78;4.53;;;;;;;11.11;86.72;101516.41;5089680;28;20023;-74
2023/05/01 02:47:23;;;;;;;10.13;3.92;;;;;;;11.13;89.15;101512.88;5094034;28;20024;-73
2023/05/01 02:49:51;;;;;;;6.78;4.03;;;;;;;11.10;89.01;101509.47;5091991;28;20024;-73
2023/05/01 02:52:18;;;;;;;11.48;5.20;;;;;;;11.10;86.73;101506.84;5092119;28;20031;-74
2023/05/01 02:54:44;;;;;;;6.38;4.50;;;;;;;11.08;87.62;101509.47;5089706;28;20070;-73
2023/05/01 02:57:10;;;;;;;8.63;4.45;;;;;;;11.04;87.68;101494.75;5094936;28;20072;-73
2023/05/01 02:59:36;;;;;;;9.70;5.00;;;;;;;11.03;88.25;101487.81;5100051;28;20019;-74
2023/05/01 03:02:02;;;;;;;7.68;4.45;;;;;;;10.99;87.84;101494.84;5101233;28;20088;-73
2023/05/01 03:04:27;;;;;;;7.75;4.15;;;;;;;10.96;88.60;101481.84;5097347;28;20421;-74
2023/05/01 03:06:53;;;;;;;7.10;4.05;;;;;;;10.95;86.83;101485.34;5093435;28;20020;-74
2023/05/01 03:09:19;;;;;;;8.82;4.65;;;;;;;10.98;88.39;101480.03;5101641;28;20455;-74
2023/05/01 03:11:44;;;;;;;8.88;4.85;;;;;;;10.97;86.98;101483.56;5101137;28;20023;-74
2023/05/01 03:14:10;;;;;;;9.50;5.03;;;;;;;10.98;88.22;101484.41;5096824;28;20040;-76
2023/05/01 03:16:35;;;;;;;7.43;4.32;;;;;;;10.98;88.17;101482.66;5093827;28;20028;-76
2023/05/01 03:19:01;;;;;;;9.93;5.10;;;;;;;10.97;89.31;101467.03;5099696;28;20395;-76
2023/05/01 03:21:26;;;;;;;12.73;4.82;;;;;;;10.84;87.11;101450.72;5093533;28;20024;-76
2023/05/01 03:23:51;;;;;;;6.47;4.50;;;;;;;10.91;88.14;101467.13;5090996;28;20414;-76
2023/05/01 03:26:17;;;;;;;7.97;4.95;;;;;;;10.90;89.48;101466.28;5096478;28;20076;-76
2023/05/01 03:28:42;;;;;;;8.02;4.88;;;;;;;10.86;89.47;101455.91;5107508;28;20122;-76
2023/05/01 03:31:07;;;;;;;6.95;4.85;;;;;;;10.91;89.56;101456.69;5102638;28;20036;-73
2023/05/01 03:33:32;;;;;;;8.77;4.85;;;;;;;10.89;88.89;101454.13;5087419;28;20069;-73
2023/05/01 03:36:03;;;;;;;9.95;5.25;;;;;;;10.90;88.86;101465.41;5091934;28;20028;-74
2023/05/01 03:38:29;;;;;;;8.27;5.18;;;;;;;10.84;90.07;101449.84;5092800;28;20020;-74
2023/05/01 03:40:55;;;;;;;10.27;5.07;;;;;;;10.81;89.05;101455.97;5093989;28;20028;-74
2023/05/01 03:43:20;;;;;;;8.85;5.05;;;;;;;10.81;90.57;101455.09;5093202;28;20107;-74
2023/05/01 03:45:46;;;;;;;7.20;4.55;;;;;;;10.76;90.87;101452.56;5092783;28;20383;-74
2023/05/01 03:48:12;;;;;;;7.40;4.53;;;;;;;10.75;89.94;101456.06;5093621;28;20031;-74
2023/05/01 03:50:37;;;;;;;8.57;4.70;;;;;;;10.73;91.93;101457.84;5093515;28;20020;-76
2023/05/01 03:53:03;;;;;;;10.00;5.40;;;;;;;10.71;91.67;101446.56;5092871;28;20034;-76
2023/05/01 03:55:28;;;;;;;10.48;5.10;;;;;;;10.67;90.60;101450.09;5093535;28;20016;-76
2023/05/01 03:57:54;;;;;;;11.23;5.68;;;;;;;10.68;91.21;101447.44;5093446;28;20471;-76
2023/05/01 04:00:19;;;;;;;9.00;5.18;;;;;;;10.64;90.43;101444.94;5093199;28;20046;-76
2023/05/01 04:02:44;;;;;;;8.88;5.43;;;;;;;10.62;91.39;101444.94;5091114;28;20026;-76
2023/05/01 04:05:10;;;;;;;7.20;5.35;;;;;;;10.64;90.64;101442.31;5091881;28;20040;-76
2023/05/01 04:07:35;;;;;;;6.90;5.35;;;;;;;10.64;89.48;101447.53;5094397;28;20044;-74
2023/05/01 04:10:01;;;;;;;6.22;4.82;;;;;;;10.63;89.58;101443.22;5092481;28;20035;-74
2023/05/01 04:12:26;;;;;;;8.07;5.07;;;;;;;10.63;90.90;101438.84;5091937;28;20420;-74
2023/05/01 04:14:52;;;;;;;8.52;5.22;;;;;;;10.55;90.19;101427.66;5092153;28;20127;-74
2023/05/01 04:17:17;;;;;;;8.30;5.30;;;;;;;10.60;90.16;101430.22;5093324;28;20024;-74
2023/05/01 04:19:43;;;;;;;9.18;5.45;;;;;;;10.60;91.35;101432.81;5091877;28;20028;-74
2023/05/01 04:22:08;;;;;;;11.95;5.97;;;;;;;10.61;90.29;101442.34;5093890;28;20024;-74
2023/05/01 04:24:35;;;;;;;10.30;5.95;;;;;;;10.53;89.75;101450.28;5093100;28;20040;-74
2023/05/01 04:27:00;;;;;;;8.88;5.55;;;;;;;10.54;91.05;101463.28;5092098;28;20114;-74
2023/05/01 04:29:26;;;;;;;14.75;5.90;;;;;;;10.53;90.39;101453.75;5082889;28;20035;-74
2023/05/01 04:31:51;;;;;;;7.93;5.30;;;;;;;10.54;92.52;101457.22;5093463;28;20016;-73
2023/05/01 04:34:16;;;;;;;9.90;5.68;;;;;;;10.50;92.36;101458.16;5090816;28;20024;-74
2023/05/01 04:36:42;;;;;;;11.73;5.82;;;;;;;10.43;92.67;101446.06;5091251;28;20035;-74
2023/05/01 04:39:07;;;;;;;10.02;5.80;;;;;;;10.35;93.17;101437.50;5091949;28;20418;-74
2023/05/01 04:41:32;;;;;;;8.68;5.93;;;;;;;10.41;94.24;101440.03;5092054;28;20115;-74
2023/05/01 04:43:58;;;;;;;10.32;5.88;;;;;;;10.32;93.54;101436.63;5092464;28;20054;-76
2023/05/01 04:46:23;;;;;;;10.15;5.82;;;;;;;10.34;94.86;101446.22;5100865;28;20023;-76
2023/05/01 04:48:48;;;;;;;9.35;6.07;;;;;;;10.26;94.79;101438.47;5087120;28;20043;-76
2023/05/01 04:51:13;;;;;;;8.82;5.90;;;;;;;10.31;96.78;101447.97;5092002;28;20031;-76
2023/05/01 04:53:39;;;;;;;9.88;6.35;;;;;;;10.35;95.93;101445.31;5091550;28;20024;-76
2023/05/01 04:56:04;;;;;;;10.20;6.40;;;;;;;10.35;96.25;101427.94;5091908;28;20067;-76
2023/05/01 04:58:30;;;;;;;11.52;6.63;;;;;;;10.35;95.56;101440.97;5092771;28;20036;-76
2023/05/01 05:00:55;;;;;;;10.93;6.55;;;;;;;10.32;96.65;101425.34;5091108;28;20547;-76
2023/05/01 05:03:20;;;;;;;9.88;6.18;;;;;;;10.39;95.86;101439.16;5091598;28;20020;-76
2023/05/01 05:05:46;;;;;;;15.25;7.68;;;;;;;10.42;95.65;101434.78;5089482;28;20074;-76
2023/05/01 05:08:11;;;;;;;12.38;6.93;;;;;;;10.48;95.29;101439.91;5090958;28;20039;-76
2023/05/01 05:10:37;;;;;;;11.82;7.53;;;;;;;10.49;95.92;101439.03;5097771;28;20091;-76
2023/05/01 05:13:02;;;;;;;10.98;7.05;;;;;;;10.49;94.83;101439.03;5090520;28;20032;-76
2023/05/01 05:15:27;;;;;;;10.35;6.68;;;;;;;10.49;94.82;101433.81;5090066;28;20043;-76
2023/05/01 05:17:52;;;;;;;11.25;7.55;;;;;;;10.44;95.26;101427.81;5092453;28;20077;-74
2023/05/01 05:20:18;;;;;;;12.80;7.15;;;;;;;10.49;94.57;101438.16;5092319;28;20032;-74
2023/05/01 05:22:43;;;;;;;15.98;7.07;;;;;;;10.50;94.84;101427.72;5090466;28;20118;-74
2023/05/01 05:25:08;;;;;;;11.73;7.00;;;;;;;10.45;93.51;101428.66;5091670;28;20536;-74
2023/05/01 05:27:36;;;;;;;20.65;7.43;;;;;;;10.51;94.70;101442.47;5091336;28;20028;-74
2023/05/01 05:30:06;;;;;;;12.07;7.15;;;;;;;10.47;93.09;101430.38;5091810;28;20016;-74
2023/05/01 05:32:32;;;;;;;14.20;7.38;;;;;;;10.52;93.34;101433.75;5080996;28;20029;-73
2023/05/01 05:34:57;;;;;;;10.13;7.07;;;;;;;10.58;93.89;101432.81;5094099;28;20437;-73
2023/05/01 05:37:24;;;;;;;11.07;7.15;;;;;;;10.67;93.45;101431.84;5112490;28;20130;-73
2023/05/01 05:39:50;;;;;;;9.95;7.78;;;;;;;10.76;93.81;101431.72;5108847;28;20089;-74
2023/05/01 05:42:15;;;;;;;11.88;6.95;;;;;;;10.88;93.26;101425.44;5113218;28;20028;-74
2023/05/01 05:44:40;;;;;;;12.18;7.70;;;;;;;10.88;92.28;101417.59;5111946;28;20059;-73
2023/05/01 05:47:06;;;;;;;11.82;7.38;;;;;;;11.02;91.37;101424.34;5112772;28;20498;-73
2023/05/01 05:49:31;;;;;;;13.60;7.72;;;;;;;11.14;91.40;101430.25;5100121;28;20043;-73
2023/05/01 05:51:56;;;;;;;12.95;7.25;;;;;;;11.24;91.09;101423.97;5094659;28;20028;-73
2023/05/01 05:54:22;;;;;;;12.88;7.60;;;;;;;11.37;91.03;101430.72;5113113;28;20024;-74
2023/05/01 05:56:47;;;;;;;12.00;7.22;;;;;;;11.44;90.32;101429.75;5112455;28;20024;-73
2023/05/01 05:59:12;;;;;;;12.65;7.50;;;;;;;11.54;90.18;101427.78;5112149;28;20111;-73
2023/05/01 06:01:39;;;;;;;13.05;7.88;;;;;;;11.55;88.04;101433.91;5112489;28;20429;-73
2023/05/01 06:04:05;;;;;;;14.05;7.70;;;;;;;11.56;87.54;101420.81;5111674;28;20023;-73
2023/05/01 06:06:31;;;;;;;14.40;7.68;;;;;;;11.66;87.95;101431.94;5096208;28;20055;-73
2023/05/01 06:08:57;;;;;;;14.95;8.60;;;;;;;11.63;88.54;101418.94;5094596;28;20383;-73
2023/05/01 06:11:22;;;;;;;14.05;8.25;;;;;;;11.68;88.19;101417.13;5108456;28;20024;-73
2023/05/01 06:13:48;;;;;;;10.90;7.57;;;;;;;11.75;87.82;101425.69;5107237;28;20473;-73
2023/05/01 06:16:14;;;;;;;13.85;8.15;;;;;;;11.76;87.18;101416.97;5100921;28;20076;-73
2023/05/01 06:18:39;;;;;;;16.63;7.70;;;;;;;11.82;86.07;101427.28;5098793;28;20029;-73
2023/05/01 06:21:05;;;;;;;13.02;8.38;;;;;;;11.87;86.52;101428.97;5100163;28;20038;-74
2023/05/01 06:23:30;;;;;;;14.93;8.18;;;;;;;11.98;84.83;101430.50;5098894;28;20086;-74
2023/05/01 06:25:56;;;;;;;13.68;8.05;;;;;;;12.08;82.98;101424.19;5100186;28;20125;-75
2023/05/01 06:28:21;;;;;;;13.30;7.50;;;;;;;12.13;85.03;101422.34;5088421;28;20471;-74
2023/05/01 06:30:47;;;;;;;16.48;8.30;;;;;;;12.23;85.83;101420.38;5098838;28;20483;-74
2023/05/01 06:33:13;;;;;;;9.65;7.80;;;;;;;12.26;84.66;101412.50;5089380;28;20028;-74
2023/05/01 06:35:39;;;;;;;14.73;8.32;;;;;;;12.36;83.24;101425.34;5097901;28;20024;-74
2023/05/01 06:38:04;;;;;;;16.75;8.05;;;;;;;12.45;83.19;101423.41;5099977;28;20031;-74
2023/05/01 06:40:30;;;;;;;13.80;7.97;;;;;;;12.49;83.01;101409.38;5096138;28;20081;-74
2023/05/01 06:42:56;;;;;;;14.70;7.63;;;;;;;12.53;83.50;101411.91;5093989;28;20387;-74
2023/05/01 06:45:22;;;;;;;12.73;8.52;;;;;;;12.68;82.30;101409.81;5095903;28;20020;-74
2023/05/01 06:47:47;;;;;;;15.73;8.30;;;;;;;12.68;81.98;101397.59;5094662;28;20028;-74
2023/05/01 06:50:13;;;;;;;12.95;7.65;;;;;;;12.83;80.88;101409.47;5090729;28;20493;-74
2023/05/01 06:52:39;;;;;;;11.93;8.45;;;;;;;12.83;81.52;101409.47;5094427;28;20039;-74
2023/05/01 06:55:04;;;;;;;13.40;8.02;;;;;;;12.87;80.07;101405.88;5094744;28;20027;-75
2023/05/01 06:57:30;;;;;;;13.60;8.32;;;;;;;12.94;81.43;101419.66;5086075;28;20032;-74
2023/05/01 06:59:55;;;;;;;11.07;7.88;;;;;;;13.02;79.30;101412.50;5100548;28;20028;-75
2023/05/01 07:02:21;;;;;;;9.93;8.27;;;;;;;13.16;79.37;101409.53;5091537;28;20040;-74
2023/05/01 07:04:46;;;;;;;13.38;8.40;;;;;;;13.31;80.42;101402.19;5098314;28;20020;-75
2023/05/01 07:07:11;;;;;;;15.75;8.20;;;;;;;13.46;76.51;101405.31;5104693;28;20024;-75
2023/05/01 07:09:37;;;;;;;11.18;8.50;;;;;;;13.51;79.02;101404.28;5092621;28;20388;-75
2023/05/01 07:12:04;;;;;;;15.38;7.65;;;;;;;13.53;76.87;101404.22;5097309;28;20459;-75
2023/05/01 07:14:29;;;;;;;13.57;7.93;;;;;;;13.61;76.44;101410.16;5094574;28;20447;-75
2023/05/01 07:16:55;;;;;;;10.73;8.35;;;;;;;13.65;76.94;101409.16;5093160;28;20099;-75
2023/05/01 07:19:20;;;;;;;12.95;8.40;;;;;;;13.68;76.78;101410.84;5092658;28;20027;-75
2023/05/01 07:21:45;;;;;;;13.15;8.00;;;;;;;13.67;76.02;101396.00;5094679;28;20024;-74
2023/05/01 07:24:11;;;;;;;23.83;8.65;;;;;;;13.72;75.02;101408.06;5093738;28;20122;-75
2023/05/01 07:26:37;;;;;;;17.05;8.10;;;;;;;13.82;75.42;101409.53;5094768;28;20020;-75
2023/05/01 07:29:03;;;;;;;15.05;8.52;;;;;;;13.94;74.67;101410.97;5104321;28;20106;-75
2023/05/01 07:31:28;;;;;;;18.70;7.75;;;;;;;13.98;74.23;101409.13;5095870;28;20200;-74
2023/05/01 07:33:53;;;;;;;12.80;7.90;;;;;;;14.12;72.57;101404.31;5091698;28;20140;-76
2023/05/01 07:36:20;;;;;;;11.45;7.70;;;;;;;14.26;72.31;101403.94;5086802;28;20032;-76
2023/05/01 07:38:46;;;;;;;15.02;8.57;;;;;;;14.42;73.17;101412.19;5097755;28;20397;-75
2023/05/01 07:41:12;;;;;;;11.18;7.25;;;;;;;14.55;70.76;101421.44;5091932;28;20114;-75
2023/05/01 07:43:37;;;;;;;14.82;7.88;;;;;;;14.52;69.47;101395.31;5091461;28;20043;-76
2023/05/01 07:46:02;;;;;;;12.05;8.40;;;;;;;14.66;70.27;101408.84;5098768;28;20070;-76
2023/05/01 07:48:28;;;;;;;12.10;8.10;;;;;;;14.73;70.39;101413.00;5094817;28;20020;-76
2023/05/01 07:50:54;;;;;;;11.48;7.35;;;;;;;14.73;68.39;101414.75;5099505;28;20024;-75
2023/05/01 07:53:21;;;;;;;11.15;7.03;;;;;;;14.75;71.33;101412.97;5097171;28;20192;-75
2023/05/01 07:55:46;;;;;;;10.98;8.05;;;;;;;14.72;70.47;101413.91;5094368;28;20020;-75
2023/05/01 07:58:12;;;;;;;13.75;8.00;;;;;;;14.73;68.57;101409.50;5088966;28;20051;-76
2023/05/01 08:00:37;;;;;;;12.00;7.57;;;;;;;14.71;68.71;101406.94;5095413;28;20109;-76
2023/05/01 08:03:02;;;;;;;10.10;7.70;;;;;;;14.87;68.92;101411.69;5099455;28;20351;-76
2023/05/01 08:05:28;;;;;;;9.65;7.20;;;;;;;15.02;68.27;101403.31;5088875;28;20032;-76
2023/05/01 08:07:53;;;;;;;12.15;7.90;;;;;;;15.14;65.75;101399.41;5094035;28;20445;-75
2023/05/01 08:10:18;;;;;;;14.23;8.65;;;;;;;15.41;66.90;101406.38;5092584;28;20036;-76
2023/05/01 08:12:44;;;;;;;11.57;7.47;;;;;;;15.59;63.75;101399.59;5092855;28;20074;-76
2023/05/01 08:15:09;;;;;;;14.63;8.35;;;;;;;15.70;64.68;101398.41;5094004;28;20027;-76
2023/05/01 08:17:35;;;;;;;12.40;7.65;;;;;;;15.70;65.43;101399.25;5093636;28;20111;-76
2023/05/01 08:20:01;;;;;;;9.80;7.10;;;;;;;15.68;66.64;101390.56;5098435;28;20024;-78
2023/05/01 08:22:26;;;;;;;13.77;7.78;;;;;;;15.68;67.25;101401.94;5104693;28;20116;-77
2023/05/01 08:24:51;;;;;;;11.98;7.82;;;;;;;15.79;66.80;101398.06;5092320;28;20468;-76
2023/05/01 08:27:17;;;;;;;13.35;8.55;;;;;;;16.07;64.16;101392.66;5092282;28;20126;-75
2023/05/01 08:29:43;;;;;;;14.35;7.85;;;;;;;16.37;65.82;101399.34;5093500;28;20024;-75
2023/05/01 08:32:08;;;;;;;13.73;8.10;;;;;;;16.66;65.09;101388.63;5084831;28;20012;-75
2023/05/01 08:34:33;;;;;;;16.08;9.20;;;;;;;16.92;63.97;101384.97;5085078;28;20024;-75
2023/05/01 08:36:59;;;;;;;10.00;7.75;;;;;;;16.99;60.07;101389.03;5097165;28;20050;-76
2023/05/01 08:39:24;;;;;;;13.63;8.63;;;;;;;17.13;61.22;101385.81;5100874;28;20027;-76
2023/05/01 08:41:50;;;;;;;13.38;8.00;;;;;;;17.36;59.17;101390.97;5090902;28;20071;-76
2023/05/01 08:44:16;;;;;;;16.05;7.85;;;;;;;17.41;57.62;101367.91;5103088;28;20533;-75
2023/05/01 08:47:06;;;;;;;10.65;7.30;;;;;;;17.60;60.70;101380.31;5092452;28;20025;-76
2023/05/01 08:49:33;;;;;;;12.30;7.90;;;;;;;17.79;59.46;101394.41;5093398;28;20463;-76
2023/05/01 08:52:01;;;;;;;12.48;8.05;;;;;;;17.99;59.99;101399.63;5089078;28;20024;-72
2023/05/01 08:54:28;;;;;;;9.80;7.68;;;;;;;18.01;54.50;101402.19;5092252;28;20055;-72
2023/05/01 08:56:56;;;;;;;10.93;7.78;;;;;;;17.84;55.80;101395.06;5092389;28;20020;-72
2023/05/01 08:59:24;;;;;;;11.02;7.05;;;;;;;17.75;55.59;101396.28;5091999;28;20032;-76
2023/05/01 09:01:50;;;;;;;11.02;7.82;;;;;;;17.72;53.70;101407.00;5091876;28;20036;-75
2023/05/01 09:04:16;;;;;;;9.98;7.65;;;;;;;17.77;52.54;101398.88;5092939;28;20421;-75
2023/05/01 09:06:43;;;;;;;12.23;7.68;;;;;;;17.64;55.17;101410.88;5092654;28;20088;-75
2023/05/01 09:09:09;;;;;;;10.07;8.25;;;;;;;17.63;56.13;101406.53;5088875;28;20021;-75
2023/05/01 09:11:35;;;;;;;11.10;8.15;;;;;;;17.70;57.72;101389.50;5083477;28;20184;-75
2023/05/01 09:14:01;;;;;;;12.20;8.57;;;;;;;17.67;55.14;101398.41;5091212;28;20032;-75
2023/05/01 09:16:27;;;;;;;12.18;8.75;;;;;;;17.76;57.98;101397.16;5090150;28;20031;-75
2023/05/01 09:18:54;;;;;;;12.75;8.35;;;;;;;17.99;57.72;101399.63;5091396;28;20028;-74
2023/05/01 09:21:19;;;;;;;10.77;8.43;;;;;;;17.99;56.68;101394.38;5092723;28;20352;-77
2023/05/01 09:23:44;;;;;;;11.95;9.07;;;;;;;18.08;56.27;101397.50;5092010;28;20153;-76
2023/05/01 09:26:10;;;;;;;12.13;8.32;;;;;;;18.10;54.65;101393.00;5098015;28;20416;-75
2023/05/01 09:28:56;;;;;;;12.82;8.70;;;;;;;18.24;55.82;101403.78;5098425;28;20020;-82
2023/05/01 09:31:27;;;;;;;10.45;8.90;;;;;;;18.27;53.92;101403.63;5083644;28;20038;-80
2023/05/01 09:33:54;;;;;;;10.65;8.55;;;;;;;18.23;54.75;101389.72;5084886;28;20032;-80
2023/05/01 09:36:21;;;;;;;10.43;8.85;;;;;;;18.34;54.01;101383.94;5088970;28;20034;-77
2023/05/01 09:38:46;;;;;;;14.20;9.15;;;;;;;18.52;52.49;101397.22;5090056;28;20028;-78
2023/05/01 09:41:13;;;;;;;11.93;8.95;;;;;;;18.65;53.33;101407.09;5091120;28;20028;-77
2023/05/01 09:43:38;;;;;;;12.25;8.77;;;;;;;18.77;51.90;101392.50;5090466;28;20036;-79
2023/05/01 09:46:09;;;;;;;12.15;9.40;;;;;;;19.05;53.00;101405.16;5090873;28;20043;-78
2023/05/01 09:48:36;;;;;;;14.10;8.40;;;;;;;19.37;53.10;101403.53;5091062;28;20019;-79
2023/05/01 09:51:19;;;;;;;11.63;8.20;;;;;;;19.85;51.22;101398.47;5089916;28;20035;-79
2023/05/01 09:53:44;;;;;;;12.45;8.40;;;;;;;19.96;47.33;101408.47;5088862;28;20025;-78
2023/05/01 09:56:09;;;;;;;12.50;8.05;;;;;;;20.07;47.17;101398.97;5092262;28;20020;-79
2023/05/01 09:58:35;;;;;;;11.00;8.15;;;;;;;20.49;47.79;101397.56;5091170;28;20028;-78
2023/05/01 10:01:00;;;;;;;12.82;8.70;;;;;;;20.68;48.40;101404.50;5089295;28;20111;-79
2023/05/01 10:03:27;;;;;;;12.80;7.80;;;;;;;20.72;49.53;101403.38;5088377;28;20111;-79
2023/05/01 10:05:55;;;;;;;12.90;8.25;;;;;;;20.63;47.84;101398.59;5090288;28;20046;-78
2023/05/01 10:08:21;;;;;;;13.55;8.50;;;;;;;20.31;47.59;101401.25;5088137;28;20111;-76
2023/05/01 10:10:59;;;;;;;11.32;8.23;;;;;;;20.23;48.39;101403.44;5093866;28;20096;-76
2023/05/01 10:13:24;;;;;;;11.23;8.23;;;;;;;20.20;51.09;101412.41;5094467;28;20363;-74
2023/05/01 10:15:50;;;;;;;11.27;8.07;;;;;;;20.06;49.46;101407.03;5096005;28;20016;-73
2023/05/01 10:18:16;;;;;;;10.27;8.40;;;;;;;20.15;50.06;101403.03;5091646;28;20059;-73
2023/05/01 10:20:41;;;;;;;12.52;8.65;;;;;;;20.30;46.53;101405.66;5097854;28;20032;-73
2023/05/01 10:23:07;;;;;;;13.27;8.23;;;;;;;20.37;49.07;101405.31;5096389;28;20099;-73
2023/05/01 10:25:33;;;;;;;10.88;7.53;;;;;;;20.56;46.74;101400.75;5095371;28;20427;-73
2023/05/01 10:28:03;;;;;;;10.75;8.20;;;;;;;20.72;46.90;101411.31;5095186;28;20024;-73
2023/05/01 10:30:29;;;;;;;8.40;7.50;;;;;;;20.87;45.54;101409.63;5112073;28;20024;-73
2023/05/01 10:32:54;;;;;;;10.45;7.63;;;;;;;20.95;44.88;101410.00;5098745;28;20387;-73
2023/05/01 10:35:40;;;;;;;12.13;8.18;;;;;;;21.14;46.59;101418.59;5095916;28;20455;-73
2023/05/01 10:38:09;;;;;;;12.80;7.28;;;;;;;21.22;46.12;101412.81;5096163;28;20360;-73
2023/05/01 10:40:40;;;;;;;10.38;7.72;;;;;;;21.20;46.34;101412.94;5095443;28;20023;-73
2023/05/01 10:43:19;;;;;;;11.98;8.10;;;;;;;21.27;47.43;101413.44;5094666;28;20077;-73
2023/05/01 10:45:46;;;;;;;10.68;7.60;;;;;;;20.94;46.50;101403.00;5099591;28;20030;-73
2023/05/01 10:48:32;;;;;;;12.02;8.15;;;;;;;20.72;46.75;101406.88;5100024;28;20379;-73
2023/05/01 10:51:30;;;;;;;13.13;7.95;;;;;;;20.85;48.67;101417.63;5095264;28;20402;-73
2023/05/01 10:54:13;;;;;;;9.98;7.57;;;;;;;20.56;49.36;101417.47;5046475;28;20086;-73
2023/05/01 10:56:41;;;;;;;10.05;7.55;;;;;;;20.38;50.07;101428.25;5094591;28;20056;-72
2023/05/01 10:59:07;;;;;;;12.68;8.05;;;;;;;20.26;48.89;101424.47;5091607;28;20489;-71
2023/05/01 11:01:50;;;;;;;9.43;7.68;;;;;;;20.28;48.76;101433.19;5093213;28;20111;-73
2023/05/01 11:04:21;;;;;;;19.60;7.90;;;;;;;20.35;48.92;101422.16;5095810;28;20047;-73
2023/05/01 11:07:03;;;;;;;11.45;8.55;;;;;;;20.40;48.89;101423.69;5101573;28;20032;-73
2023/05/01 11:09:45;;;;;;;10.70;8.45;;;;;;;20.58;48.79;101422.72;5097113;28;20085;-73
2023/05/01 11:12:12;;;;;;;13.77;8.13;;;;;;;20.61;47.14;101424.34;5091560;28;20528;-73
2023/05/01 11:14:52;;;;;;;13.45;7.88;;;;;;;20.70;48.43;101419.38;5093433;28;20388;-73
2023/05/01 11:17:39;;;;;;;10.13;8.10;;;;;;;20.63;47.59;101418.00;5099104;28;20115;-73
2023/05/01 11:20:06;;;;;;;11.63;8.07;;;;;;;20.35;47.74;101423.97;5091504;28;20047;-73
2023/05/01 11:22:32;;;;;;;13.77;7.85;;;;;;;20.07;47.95;101421.94;5095898;28;20036;-73